sensor_id;sensor_type;location;lat;lon;timestamp;temperature;humidity
1506;DHT22;744;51.436;7.356;2023-04-10T00:02:09;11.80;37.30
1506;DHT22;744;51.436;7.356;2023-04-10T00:04:36;11.80;37.50
1506;DHT22;744;51.436;7.356;2023-04-10T00:07:03;11.70;37.50
1506;DHT22;744;51.436;7.356;2023-04-10T00:09:31;11.70;37.70
1506;DHT22;744;51.436;7.356;2023-04-10T00:11:58;11.60;37.70
1506;DHT22;744;51.436;7.356;2023-04-10T00:14:25;11.70;37.80
1506;DHT22;744;51.436;7.356;2023-04-10T00:16:52;11.60;37.80
1506;DHT22;744;51.436;7.356;2023-04-10T00:19:19;11.50;38.20
1506;DHT22;744;51.436;7.356;2023-04-10T00:21:45;11.50;38.20
1506;DHT22;744;51.436;7.356;2023-04-10T00:24:12;11.50;38.20
1506;DHT22;744;51.436;7.356;2023-04-10T00:26:39;11.40;38.30
1506;DHT22;744;51.436;7.356;2023-04-10T00:29:06;11.40;38.30
1506;DHT22;744;51.436;7.356;2023-04-10T00:31:33;11.20;38.30
1506;DHT22;744;51.436;7.356;2023-04-10T00:34:00;11.10;38.50
1506;DHT22;744;51.436;7.356;2023-04-10T00:36:27;11.30;39.10
1506;DHT22;744;51.436;7.356;2023-04-10T00:38:54;11.00;39.10
1506;DHT22;744;51.436;7.356;2023-04-10T00:41:20;11.30;39.40
1506;DHT22;744;51.436;7.356;2023-04-10T00:43:49;11.10;39.30
1506;DHT22;744;51.436;7.356;2023-04-10T00:46:16;11.30;39.50
1506;DHT22;744;51.436;7.356;2023-04-10T00:48:43;11.10;39.90
1506;DHT22;744;51.436;7.356;2023-04-10T00:51:11;11.20;39.40
1506;DHT22;744;51.436;7.356;2023-04-10T00:53:37;11.00;39.20
1506;DHT22;744;51.436;7.356;2023-04-10T00:56:05;11.00;39.20
1506;DHT22;744;51.436;7.356;2023-04-10T00:58:32;11.20;39.40
1506;DHT22;744;51.436;7.356;2023-04-10T01:00:59;10.80;39.10
1506;DHT22;744;51.436;7.356;2023-04-10T01:03:27;11.10;39.30
1506;DHT22;744;51.436;7.356;2023-04-10T01:06:05;10.70;39.00
1506;DHT22;744;51.436;7.356;2023-04-10T01:08:59;11.10;39.30
1506;DHT22;744;51.436;7.356;2023-04-10T01:16:55;10.70;39.70
1506;DHT22;744;51.436;7.356;2023-04-10T01:19:52;10.80;39.20
1506;DHT22;744;51.436;7.356;2023-04-10T01:30:51;10.40;39.30
1506;DHT22;744;51.436;7.356;2023-04-10T01:33:21;10.50;39.60
1506;DHT22;744;51.436;7.356;2023-04-10T01:35:52;10.50;39.50
1506;DHT22;744;51.436;7.356;2023-04-10T01:38:23;10.60;39.80
1506;DHT22;744;51.436;7.356;2023-04-10T01:40:53;10.60;39.80
1506;DHT22;744;51.436;7.356;2023-04-10T01:43:21;10.60;40.00
1506;DHT22;744;51.436;7.356;2023-04-10T01:45:52;10.60;40.00
1506;DHT22;744;51.436;7.356;2023-04-10T01:48:19;10.70;40.20
1506;DHT22;744;51.436;7.356;2023-04-10T01:50:46;10.50;40.20
1506;DHT22;744;51.436;7.356;2023-04-10T01:53:14;10.60;40.50
1506;DHT22;744;51.436;7.356;2023-04-10T01:55:42;10.40;40.10
1506;DHT22;744;51.436;7.356;2023-04-10T01:58:09;10.50;40.40
1506;DHT22;744;51.436;7.356;2023-04-10T02:00:40;10.40;40.40
1506;DHT22;744;51.436;7.356;2023-04-10T02:03:09;10.30;40.40
1506;DHT22;744;51.436;7.356;2023-04-10T02:08:55;10.30;40.70
1506;DHT22;744;51.436;7.356;2023-04-10T02:11:43;10.30;40.50
1506;DHT22;744;51.436;7.356;2023-04-10T02:14:15;10.40;40.70
1506;DHT22;744;51.436;7.356;2023-04-10T02:16:43;10.20;40.60
1506;DHT22;744;51.436;7.356;2023-04-10T02:19:12;10.50;40.80
1506;DHT22;744;51.436;7.356;2023-04-10T02:21:40;10.50;40.80
1506;DHT22;744;51.436;7.356;2023-04-10T02:24:07;10.40;40.70
1506;DHT22;744;51.436;7.356;2023-04-10T02:26:47;10.40;40.80
1506;DHT22;744;51.436;7.356;2023-04-10T02:29:15;10.50;41.00
1506;DHT22;744;51.436;7.356;2023-04-10T02:31:43;10.10;40.80
1506;DHT22;744;51.436;7.356;2023-04-10T02:34:10;10.30;41.00
1506;DHT22;744;51.436;7.356;2023-04-10T02:36:37;10.10;40.80
1506;DHT22;744;51.436;7.356;2023-04-10T02:39:05;10.10;40.90
1506;DHT22;744;51.436;7.356;2023-04-10T02:41:32;9.90;41.80
1506;DHT22;744;51.436;7.356;2023-04-10T02:43:59;10.00;41.10
1506;DHT22;744;51.436;7.356;2023-04-10T02:46:26;10.10;41.10
1506;DHT22;744;51.436;7.356;2023-04-10T02:48:53;10.20;41.30
1506;DHT22;744;51.436;7.356;2023-04-10T02:51:21;10.20;41.10
1506;DHT22;744;51.436;7.356;2023-04-10T02:53:48;10.00;40.70
1506;DHT22;744;51.436;7.356;2023-04-10T02:56:14;10.30;41.00
1506;DHT22;744;51.436;7.356;2023-04-10T02:58:41;10.40;41.00
1506;DHT22;744;51.436;7.356;2023-04-10T03:01:12;10.10;40.90
1506;DHT22;744;51.436;7.356;2023-04-10T03:03:39;10.20;41.10
1506;DHT22;744;51.436;7.356;2023-04-10T03:06:08;10.00;41.00
1506;DHT22;744;51.436;7.356;2023-04-10T03:08:35;10.20;41.10
1506;DHT22;744;51.436;7.356;2023-04-10T03:11:02;10.10;41.10
1506;DHT22;744;51.436;7.356;2023-04-10T03:13:28;10.30;41.40
1506;DHT22;744;51.436;7.356;2023-04-10T03:15:55;10.10;41.20
1506;DHT22;744;51.436;7.356;2023-04-10T03:18:22;10.20;41.40
1506;DHT22;744;51.436;7.356;2023-04-10T03:20:49;10.00;41.40
1506;DHT22;744;51.436;7.356;2023-04-10T03:23:16;10.10;41.30
1506;DHT22;744;51.436;7.356;2023-04-10T03:25:43;10.10;41.50
1506;DHT22;744;51.436;7.356;2023-04-10T03:28:10;10.10;41.50
1506;DHT22;744;51.436;7.356;2023-04-10T03:30:37;10.00;41.60
1506;DHT22;744;51.436;7.356;2023-04-10T03:33:03;10.00;41.70
1506;DHT22;744;51.436;7.356;2023-04-10T03:35:30;9.90;42.70
1506;DHT22;744;51.436;7.356;2023-04-10T03:37:57;10.20;41.90
1506;DHT22;744;51.436;7.356;2023-04-10T03:40:24;10.20;41.80
1506;DHT22;744;51.436;7.356;2023-04-10T03:42:51;9.80;42.60
1506;DHT22;744;51.436;7.356;2023-04-10T03:45:17;9.70;42.70
1506;DHT22;744;51.436;7.356;2023-04-10T03:47:44;9.60;42.80
1506;DHT22;744;51.436;7.356;2023-04-10T03:50:11;9.70;42.70
1506;DHT22;744;51.436;7.356;2023-04-10T03:52:39;9.80;42.80
1506;DHT22;744;51.436;7.356;2023-04-10T03:55:06;9.70;42.60
1506;DHT22;744;51.436;7.356;2023-04-10T03:57:33;10.20;42.10
1506;DHT22;744;51.436;7.356;2023-04-10T03:59:59;10.00;42.10
1506;DHT22;744;51.436;7.356;2023-04-10T04:02:26;10.10;42.10
1506;DHT22;744;51.436;7.356;2023-04-10T04:04:53;9.90;42.90
1506;DHT22;744;51.436;7.356;2023-04-10T04:07:20;10.00;41.90
1506;DHT22;744;51.436;7.356;2023-04-10T04:09:47;9.90;42.90
1506;DHT22;744;51.436;7.356;2023-04-10T04:12:13;9.70;42.60
1506;DHT22;744;51.436;7.356;2023-04-10T04:14:40;10.10;42.60
1506;DHT22;744;51.436;7.356;2023-04-10T04:17:08;9.90;42.60
1506;DHT22;744;51.436;7.356;2023-04-10T04:19:36;10.00;41.80
1506;DHT22;744;51.436;7.356;2023-04-10T04:22:02;9.90;42.50
1506;DHT22;744;51.436;7.356;2023-04-10T04:24:29;9.90;42.40
1506;DHT22;744;51.436;7.356;2023-04-10T04:26:56;9.90;42.40
1506;DHT22;744;51.436;7.356;2023-04-10T04:29:23;10.30;41.60
1506;DHT22;744;51.436;7.356;2023-04-10T04:31:50;9.90;42.10
1506;DHT22;744;51.436;7.356;2023-04-10T04:34:16;9.90;42.10
1506;DHT22;744;51.436;7.356;2023-04-10T04:36:43;10.20;41.60
1506;DHT22;744;51.436;7.356;2023-04-10T04:39:10;10.00;41.30
1506;DHT22;744;51.436;7.356;2023-04-10T04:41:37;10.20;41.50
1506;DHT22;744;51.436;7.356;2023-04-10T04:44:04;10.20;41.30
1506;DHT22;744;51.436;7.356;2023-04-10T04:46:32;10.10;41.30
1506;DHT22;744;51.436;7.356;2023-04-10T04:48:58;10.30;41.30
1506;DHT22;744;51.436;7.356;2023-04-10T04:51:25;10.00;41.10
1506;DHT22;744;51.436;7.356;2023-04-10T04:53:52;10.20;41.40
1506;DHT22;744;51.436;7.356;2023-04-10T04:56:19;10.30;41.20
1506;DHT22;744;51.436;7.356;2023-04-10T04:58:46;10.30;41.30
1506;DHT22;744;51.436;7.356;2023-04-10T05:01:13;10.40;40.90
1506;DHT22;744;51.436;7.356;2023-04-10T05:03:39;10.20;40.60
1506;DHT22;744;51.436;7.356;2023-04-10T05:06:06;10.60;40.90
1506;DHT22;744;51.436;7.356;2023-04-10T05:08:33;10.60;40.60
1506;DHT22;744;51.436;7.356;2023-04-10T05:11:00;10.40;40.40
1506;DHT22;744;51.436;7.356;2023-04-10T05:13:27;10.50;40.20
1506;DHT22;744;51.436;7.356;2023-04-10T05:15:53;10.50;40.40
1506;DHT22;744;51.436;7.356;2023-04-10T05:18:20;10.70;40.50
1506;DHT22;744;51.436;7.356;2023-04-10T05:20:49;10.80;40.60
1506;DHT22;744;51.436;7.356;2023-04-10T05:23:16;10.60;40.40
1506;DHT22;744;51.436;7.356;2023-04-10T05:25:43;10.70;40.50
1506;DHT22;744;51.436;7.356;2023-04-10T05:28:10;10.80;40.50
1506;DHT22;744;51.436;7.356;2023-04-10T05:30:36;10.70;40.30
1506;DHT22;744;51.436;7.356;2023-04-10T05:33:03;10.80;40.20
1506;DHT22;744;51.436;7.356;2023-04-10T05:35:30;10.80;40.10
1506;DHT22;744;51.436;7.356;2023-04-10T05:37:57;10.80;40.00
1506;DHT22;744;51.436;7.356;2023-04-10T05:40:24;10.70;40.00
1506;DHT22;744;51.436;7.356;2023-04-10T05:42:51;10.60;39.80
1506;DHT22;744;51.436;7.356;2023-04-10T05:45:18;10.80;40.10
1506;DHT22;744;51.436;7.356;2023-04-10T05:47:45;10.90;40.60
1506;DHT22;744;51.436;7.356;2023-04-10T05:50:12;10.70;40.10
1506;DHT22;744;51.436;7.356;2023-04-10T05:52:38;10.80;40.40
1506;DHT22;744;51.436;7.356;2023-04-10T05:55:06;10.50;40.30
1506;DHT22;744;51.436;7.356;2023-04-10T05:57:33;10.50;40.30
1506;DHT22;744;51.436;7.356;2023-04-10T05:59:59;10.70;40.80
1506;DHT22;744;51.436;7.356;2023-04-10T06:02:26;10.70;40.70
1506;DHT22;744;51.436;7.356;2023-04-10T06:04:53;10.60;40.50
1506;DHT22;744;51.436;7.356;2023-04-10T06:07:20;10.90;40.80
1506;DHT22;744;51.436;7.356;2023-04-10T06:09:47;10.60;40.10
1506;DHT22;744;51.436;7.356;2023-04-10T06:12:14;10.80;40.20
1506;DHT22;744;51.436;7.356;2023-04-10T06:14:41;11.00;40.20
1506;DHT22;744;51.436;7.356;2023-04-10T06:17:08;11.10;40.00
1506;DHT22;744;51.436;7.356;2023-04-10T06:19:34;11.00;39.40
1506;DHT22;744;51.436;7.356;2023-04-10T06:22:01;11.20;39.40
1506;DHT22;744;51.436;7.356;2023-04-10T06:24:28;11.50;39.70
1506;DHT22;744;51.436;7.356;2023-04-10T06:26:54;11.30;39.50
1506;DHT22;744;51.436;7.356;2023-04-10T06:29:22;11.30;39.50
1506;DHT22;744;51.436;7.356;2023-04-10T06:31:49;11.50;39.40
1506;DHT22;744;51.436;7.356;2023-04-10T06:34:16;11.60;39.10
1506;DHT22;744;51.436;7.356;2023-04-10T06:36:43;11.80;38.80
1506;DHT22;744;51.436;7.356;2023-04-10T06:39:10;11.70;38.60
1506;DHT22;744;51.436;7.356;2023-04-10T06:41:37;11.80;38.30
1506;DHT22;744;51.436;7.356;2023-04-10T06:44:03;12.20;38.50
1506;DHT22;744;51.436;7.356;2023-04-10T06:46:30;12.40;38.30
1506;DHT22;744;51.436;7.356;2023-04-10T06:48:57;12.30;37.90
1506;DHT22;744;51.436;7.356;2023-04-10T06:51:24;12.40;38.00
1506;DHT22;744;51.436;7.356;2023-04-10T06:53:51;12.30;37.60
1506;DHT22;744;51.436;7.356;2023-04-10T06:56:18;12.40;37.50
1506;DHT22;744;51.436;7.356;2023-04-10T06:58:45;12.20;37.00
1506;DHT22;744;51.436;7.356;2023-04-10T07:01:11;12.60;37.20
1506;DHT22;744;51.436;7.356;2023-04-10T07:03:38;12.60;36.90
1506;DHT22;744;51.436;7.356;2023-04-10T07:06:05;12.60;36.50
1506;DHT22;744;51.436;7.356;2023-04-10T07:08:33;12.50;36.10
1506;DHT22;744;51.436;7.356;2023-04-10T07:11:00;12.50;36.00
1506;DHT22;744;51.436;7.356;2023-04-10T07:13:27;12.80;36.30
1506;DHT22;744;51.436;7.356;2023-04-10T07:15:54;12.80;36.20
1506;DHT22;744;51.436;7.356;2023-04-10T07:18:20;12.70;35.70
1506;DHT22;744;51.436;7.356;2023-04-10T07:20:49;13.10;35.80
1506;DHT22;744;51.436;7.356;2023-04-10T07:23:16;13.10;35.70
1506;DHT22;744;51.436;7.356;2023-04-10T07:25:43;13.30;36.20
1506;DHT22;744;51.436;7.356;2023-04-10T07:28:10;13.40;35.20
1506;DHT22;744;51.436;7.356;2023-04-10T07:30:36;13.50;35.10
1506;DHT22;744;51.436;7.356;2023-04-10T07:33:03;13.70;34.60
1506;DHT22;744;51.436;7.356;2023-04-10T07:35:30;13.90;34.50
1506;DHT22;744;51.436;7.356;2023-04-10T07:37:57;14.00;34.40
1506;DHT22;744;51.436;7.356;2023-04-10T07:40:24;13.80;33.70
1506;DHT22;744;51.436;7.356;2023-04-10T07:42:51;13.80;33.30
1506;DHT22;744;51.436;7.356;2023-04-10T07:45:19;13.90;33.20
1506;DHT22;744;51.436;7.356;2023-04-10T07:47:46;13.80;32.50
1506;DHT22;744;51.436;7.356;2023-04-10T07:50:13;13.90;33.20
1506;DHT22;744;51.436;7.356;2023-04-10T07:52:40;14.00;32.70
1506;DHT22;744;51.436;7.356;2023-04-10T07:55:07;14.20;32.90
1506;DHT22;744;51.436;7.356;2023-04-10T07:57:34;13.90;32.60
1506;DHT22;744;51.436;7.356;2023-04-10T08:00:02;14.10;32.30
1506;DHT22;744;51.436;7.356;2023-04-10T08:02:28;14.00;31.90
1506;DHT22;744;51.436;7.356;2023-04-10T08:04:56;14.20;32.00
1506;DHT22;744;51.436;7.356;2023-04-10T08:07:23;14.40;32.00
1506;DHT22;744;51.436;7.356;2023-04-10T08:09:49;14.30;31.40
1506;DHT22;744;51.436;7.356;2023-04-10T08:12:16;14.50;31.20
1506;DHT22;744;51.436;7.356;2023-04-10T08:14:43;14.40;30.80
1506;DHT22;744;51.436;7.356;2023-04-10T08:17:10;14.60;31.00
1506;DHT22;744;51.436;7.356;2023-04-10T08:19:41;14.70;31.00
1506;DHT22;744;51.436;7.356;2023-04-10T08:22:09;14.80;31.00
1506;DHT22;744;51.436;7.356;2023-04-10T08:24:35;14.80;30.80
1506;DHT22;744;51.436;7.356;2023-04-10T08:27:02;14.70;30.60
1506;DHT22;744;51.436;7.356;2023-04-10T08:29:29;14.60;30.30
1506;DHT22;744;51.436;7.356;2023-04-10T08:31:56;14.90;30.30
1506;DHT22;744;51.436;7.356;2023-04-10T08:34:26;14.70;30.00
1506;DHT22;744;51.436;7.356;2023-04-10T08:36:53;14.90;30.10
1506;DHT22;744;51.436;7.356;2023-04-10T08:39:20;15.10;30.00
1506;DHT22;744;51.436;7.356;2023-04-10T08:41:47;15.10;29.80
1506;DHT22;744;51.436;7.356;2023-04-10T08:44:14;15.20;29.60
1506;DHT22;744;51.436;7.356;2023-04-10T08:46:42;15.30;29.70
1506;DHT22;744;51.436;7.356;2023-04-10T08:49:16;15.40;29.50
1506;DHT22;744;51.436;7.356;2023-04-10T08:51:52;15.50;29.50
1506;DHT22;744;51.436;7.356;2023-04-10T08:54:26;15.50;29.30
1506;DHT22;744;51.436;7.356;2023-04-10T08:56:54;15.60;29.30
1506;DHT22;744;51.436;7.356;2023-04-10T08:59:21;15.70;29.30
1506;DHT22;744;51.436;7.356;2023-04-10T09:01:48;16.00;29.40
1506;DHT22;744;51.436;7.356;2023-04-10T09:04:15;16.00;29.10
1506;DHT22;744;51.436;7.356;2023-04-10T09:06:43;16.20;28.80
1506;DHT22;744;51.436;7.356;2023-04-10T09:09:10;16.20;28.80
1506;DHT22;744;51.436;7.356;2023-04-10T09:14:28;16.10;28.30
1506;DHT22;744;51.436;7.356;2023-04-10T09:17:18;16.10;28.30
1506;DHT22;744;51.436;7.356;2023-04-10T09:19:47;16.00;28.10
1506;DHT22;744;51.436;7.356;2023-04-10T09:22:14;16.20;27.90
1506;DHT22;744;51.436;7.356;2023-04-10T09:24:44;16.50;27.80
1506;DHT22;744;51.436;7.356;2023-04-10T09:27:35;16.30;27.40
1506;DHT22;744;51.436;7.356;2023-04-10T09:30:03;16.30;27.20
1506;DHT22;744;51.436;7.356;2023-04-10T09:32:40;16.30;27.60
1506;DHT22;744;51.436;7.356;2023-04-10T09:35:13;16.10;27.30
1506;DHT22;744;51.436;7.356;2023-04-10T09:37:43;16.20;27.30
1506;DHT22;744;51.436;7.356;2023-04-10T09:40:24;16.40;27.20
1506;DHT22;744;51.436;7.356;2023-04-10T09:42:51;16.70;27.20
1506;DHT22;744;51.436;7.356;2023-04-10T09:45:19;16.80;27.30
1506;DHT22;744;51.436;7.356;2023-04-10T09:48:06;16.70;27.20
1506;DHT22;744;51.436;7.356;2023-04-10T09:50:37;16.80;26.80
1506;DHT22;744;51.436;7.356;2023-04-10T09:53:14;16.80;26.80
1506;DHT22;744;51.436;7.356;2023-04-10T09:55:42;16.80;26.80
1506;DHT22;744;51.436;7.356;2023-04-10T09:58:10;16.90;26.80
1506;DHT22;744;51.436;7.356;2023-04-10T10:00:43;17.20;27.00
1506;DHT22;744;51.436;7.356;2023-04-10T10:03:17;17.20;27.00
1506;DHT22;744;51.436;7.356;2023-04-10T10:05:50;17.10;26.90
1506;DHT22;744;51.436;7.356;2023-04-10T10:08:17;17.20;27.00
1506;DHT22;744;51.436;7.356;2023-04-10T10:10:50;17.60;27.30
1506;DHT22;744;51.436;7.356;2023-04-10T10:13:25;17.50;27.20
1506;DHT22;744;51.436;7.356;2023-04-10T10:18:43;17.60;27.00
1506;DHT22;744;51.436;7.356;2023-04-10T10:21:12;17.60;26.80
1506;DHT22;744;51.436;7.356;2023-04-10T10:23:39;17.80;26.60
1506;DHT22;744;51.436;7.356;2023-04-10T10:26:08;17.70;26.60
1506;DHT22;744;51.436;7.356;2023-04-10T10:28:36;17.70;26.40
1506;DHT22;744;51.436;7.356;2023-04-10T10:31:05;17.90;26.30
1506;DHT22;744;51.436;7.356;2023-04-10T10:33:34;18.00;26.50
1506;DHT22;744;51.436;7.356;2023-04-10T10:36:02;17.80;26.30
1506;DHT22;744;51.436;7.356;2023-04-10T10:38:31;18.00;26.10
1506;DHT22;744;51.436;7.356;2023-04-10T10:41:17;18.00;25.70
1506;DHT22;744;51.436;7.356;2023-04-10T10:44:07;17.90;25.50
1506;DHT22;744;51.436;7.356;2023-04-10T10:46:43;17.90;25.30
1506;DHT22;744;51.436;7.356;2023-04-10T10:49:10;17.80;25.20
1506;DHT22;744;51.436;7.356;2023-04-10T10:51:50;17.80;25.40
1506;DHT22;744;51.436;7.356;2023-04-10T10:54:34;17.90;25.20
1506;DHT22;744;51.436;7.356;2023-04-10T10:57:01;18.00;25.20
1506;DHT22;744;51.436;7.356;2023-04-10T11:02:17;18.20;25.30
1506;DHT22;744;51.436;7.356;2023-04-10T11:04:46;18.20;24.80
1506;DHT22;744;51.436;7.356;2023-04-10T11:07:14;18.30;24.90
1506;DHT22;744;51.436;7.356;2023-04-10T11:09:49;18.20;24.80
1506;DHT22;744;51.436;7.356;2023-04-10T11:12:20;18.30;24.80
1506;DHT22;744;51.436;7.356;2023-04-10T11:15:02;18.40;24.30
1506;DHT22;744;51.436;7.356;2023-04-10T11:17:49;18.50;24.20
1506;DHT22;744;51.436;7.356;2023-04-10T11:20:18;18.30;24.00
1506;DHT22;744;51.436;7.356;2023-04-10T11:23:10;18.30;24.10
1506;DHT22;744;51.436;7.356;2023-04-10T11:25:48;18.40;24.10
1506;DHT22;744;51.436;7.356;2023-04-10T11:31:20;18.60;24.20
1506;DHT22;744;51.436;7.356;2023-04-10T11:34:00;18.50;24.10
1506;DHT22;744;51.436;7.356;2023-04-10T11:36:27;18.20;23.90
1506;DHT22;744;51.436;7.356;2023-04-10T11:39:03;18.40;24.10
1506;DHT22;744;51.436;7.356;2023-04-10T11:41:43;18.50;23.90
1506;DHT22;744;51.436;7.356;2023-04-10T11:44:13;18.40;24.00
1506;DHT22;744;51.436;7.356;2023-04-10T11:46:42;18.70;24.30
1506;DHT22;744;51.436;7.356;2023-04-10T11:49:09;18.60;24.20
1506;DHT22;744;51.436;7.356;2023-04-10T11:51:37;18.50;24.20
1506;DHT22;744;51.436;7.356;2023-04-10T11:54:31;18.70;24.30
1506;DHT22;744;51.436;7.356;2023-04-10T11:57:03;18.80;24.40
1506;DHT22;744;51.436;7.356;2023-04-10T11:59:32;19.20;24.50
1506;DHT22;744;51.436;7.356;2023-04-10T12:02:04;19.00;24.00
1506;DHT22;744;51.436;7.356;2023-04-10T12:04:32;19.00;23.70
1506;DHT22;744;51.436;7.356;2023-04-10T12:07:00;19.20;23.90
1506;DHT22;744;51.436;7.356;2023-04-10T12:09:26;19.10;23.50
1506;DHT22;744;51.436;7.356;2023-04-10T12:11:57;18.80;23.30
1506;DHT22;744;51.436;7.356;2023-04-10T12:14:40;18.90;23.20
1506;DHT22;744;51.436;7.356;2023-04-10T12:17:11;19.10;23.50
1506;DHT22;744;51.436;7.356;2023-04-10T12:19:38;19.20;23.50
1506;DHT22;744;51.436;7.356;2023-04-10T12:22:05;19.30;23.80
1506;DHT22;744;51.436;7.356;2023-04-10T12:24:46;19.40;23.80
1506;DHT22;744;51.436;7.356;2023-04-10T12:27:23;19.50;23.50
1506;DHT22;744;51.436;7.356;2023-04-10T12:29:55;19.60;23.40
1506;DHT22;744;51.436;7.356;2023-04-10T12:32:23;19.60;23.20
1506;DHT22;744;51.436;7.356;2023-04-10T12:34:56;19.50;23.00
1506;DHT22;744;51.436;7.356;2023-04-10T12:37:24;19.50;23.00
1506;DHT22;744;51.436;7.356;2023-04-10T12:39:51;19.50;23.00
1506;DHT22;744;51.436;7.356;2023-04-10T12:42:21;19.50;23.00
1506;DHT22;744;51.436;7.356;2023-04-10T12:44:56;19.60;23.20
1506;DHT22;744;51.436;7.356;2023-04-10T12:47:26;19.60;23.00
1506;DHT22;744;51.436;7.356;2023-04-10T12:50:22;19.60;22.70
1506;DHT22;744;51.436;7.356;2023-04-10T12:53:04;19.70;22.60
1506;DHT22;744;51.436;7.356;2023-04-10T12:55:37;19.70;22.30
1506;DHT22;744;51.436;7.356;2023-04-10T12:58:17;19.50;22.20
1506;DHT22;744;51.436;7.356;2023-04-10T13:00:48;19.80;22.10
1506;DHT22;744;51.436;7.356;2023-04-10T13:03:15;19.90;22.80
1506;DHT22;744;51.436;7.356;2023-04-10T13:05:43;20.00;22.10
1506;DHT22;744;51.436;7.356;2023-04-10T13:08:09;20.00;21.60
1506;DHT22;744;51.436;7.356;2023-04-10T13:18:29;20.00;21.70
1506;DHT22;744;51.436;7.356;2023-04-10T13:20:56;20.10;21.80
1506;DHT22;744;51.436;7.356;2023-04-10T13:23:23;20.00;21.40
1506;DHT22;744;51.436;7.356;2023-04-10T13:25:49;19.80;21.20
1506;DHT22;744;51.436;7.356;2023-04-10T13:28:16;19.90;21.20
1506;DHT22;744;51.436;7.356;2023-04-10T13:30:44;19.90;20.90
1506;DHT22;744;51.436;7.356;2023-04-10T13:33:11;19.80;20.60
1506;DHT22;744;51.436;7.356;2023-04-10T13:35:38;19.40;20.10
1506;DHT22;744;51.436;7.356;2023-04-10T13:38:06;19.70;20.20
1506;DHT22;744;51.436;7.356;2023-04-10T13:40:35;19.40;19.80
1506;DHT22;744;51.436;7.356;2023-04-10T13:43:01;19.50;20.00
1506;DHT22;744;51.436;7.356;2023-04-10T13:45:28;19.50;20.00
1506;DHT22;744;51.436;7.356;2023-04-10T13:47:55;19.60;20.10
1506;DHT22;744;51.436;7.356;2023-04-10T13:50:22;19.30;20.00
1506;DHT22;744;51.436;7.356;2023-04-10T13:52:49;19.50;20.00
1506;DHT22;744;51.436;7.356;2023-04-10T13:55:19;19.70;20.30
1506;DHT22;744;51.436;7.356;2023-04-10T13:57:45;19.40;20.10
1506;DHT22;744;51.436;7.356;2023-04-10T14:00:13;19.80;20.40
1506;DHT22;744;51.436;7.356;2023-04-10T14:02:40;19.80;20.30
1506;DHT22;744;51.436;7.356;2023-04-10T14:05:07;19.80;20.40
1506;DHT22;744;51.436;7.356;2023-04-10T14:07:34;19.80;20.40
1506;DHT22;744;51.436;7.356;2023-04-10T14:10:01;19.80;20.50
1506;DHT22;744;51.436;7.356;2023-04-10T14:12:28;19.80;20.50
1506;DHT22;744;51.436;7.356;2023-04-10T14:14:55;19.90;20.60
1506;DHT22;744;51.436;7.356;2023-04-10T14:17:22;19.90;20.80
1506;DHT22;744;51.436;7.356;2023-04-10T14:19:49;20.00;20.70
1506;DHT22;744;51.436;7.356;2023-04-10T14:22:18;20.00;20.70
1506;DHT22;744;51.436;7.356;2023-04-10T14:24:45;20.00;20.70
1506;DHT22;744;51.436;7.356;2023-04-10T14:27:12;20.00;20.70
1506;DHT22;744;51.436;7.356;2023-04-10T14:29:39;19.90;20.60
1506;DHT22;744;51.436;7.356;2023-04-10T14:32:20;19.80;20.50
1506;DHT22;744;51.436;7.356;2023-04-10T14:34:46;19.70;20.70
1506;DHT22;744;51.436;7.356;2023-04-10T14:37:13;19.60;21.10
1506;DHT22;744;51.436;7.356;2023-04-10T14:39:41;19.70;21.20
1506;DHT22;744;51.436;7.356;2023-04-10T14:42:08;19.80;21.20
1506;DHT22;744;51.436;7.356;2023-04-10T14:44:36;19.80;21.20
1506;DHT22;744;51.436;7.356;2023-04-10T14:47:02;19.80;21.20
1506;DHT22;744;51.436;7.356;2023-04-10T14:49:32;19.70;21.20
1506;DHT22;744;51.436;7.356;2023-04-10T14:51:59;19.60;21.10
1506;DHT22;744;51.436;7.356;2023-04-10T14:54:26;19.60;21.10
1506;DHT22;744;51.436;7.356;2023-04-10T14:56:53;19.60;21.10
1506;DHT22;744;51.436;7.356;2023-04-10T14:59:20;19.40;20.90
1506;DHT22;744;51.436;7.356;2023-04-10T15:01:48;19.40;21.00
1506;DHT22;744;51.436;7.356;2023-04-10T15:04:15;19.30;21.40
1506;DHT22;744;51.436;7.356;2023-04-10T15:06:43;19.30;21.60
1506;DHT22;744;51.436;7.356;2023-04-10T15:09:10;19.10;21.60
1506;DHT22;744;51.436;7.356;2023-04-10T15:11:38;19.10;21.50
1506;DHT22;744;51.436;7.356;2023-04-10T15:14:06;19.30;21.80
1506;DHT22;744;51.436;7.356;2023-04-10T15:16:34;19.30;22.00
1506;DHT22;744;51.436;7.356;2023-04-10T15:19:01;19.30;22.00
1506;DHT22;744;51.436;7.356;2023-04-10T15:21:27;19.30;22.00
1506;DHT22;744;51.436;7.356;2023-04-10T15:23:54;19.30;22.20
1506;DHT22;744;51.436;7.356;2023-04-10T15:26:22;19.40;22.10
1506;DHT22;744;51.436;7.356;2023-04-10T15:28:48;19.50;22.30
1506;DHT22;744;51.436;7.356;2023-04-10T15:31:15;19.20;22.30
1506;DHT22;744;51.436;7.356;2023-04-10T15:33:42;19.10;22.30
1506;DHT22;744;51.436;7.356;2023-04-10T15:36:09;19.20;22.50
1506;DHT22;744;51.436;7.356;2023-04-10T15:38:36;18.90;22.40
1506;DHT22;744;51.436;7.356;2023-04-10T15:41:10;19.40;22.70
1506;DHT22;744;51.436;7.356;2023-04-10T15:43:38;19.30;22.60
1506;DHT22;744;51.436;7.356;2023-04-10T15:46:06;19.30;22.80
1506;DHT22;744;51.436;7.356;2023-04-10T15:48:35;19.20;22.90
1506;DHT22;744;51.436;7.356;2023-04-10T15:51:04;19.30;23.00
1506;DHT22;744;51.436;7.356;2023-04-10T15:53:32;19.40;23.10
1506;DHT22;744;51.436;7.356;2023-04-10T15:55:59;19.30;23.00
1506;DHT22;744;51.436;7.356;2023-04-10T15:58:26;19.30;23.20
1506;DHT22;744;51.436;7.356;2023-04-10T16:00:53;19.30;23.10
1506;DHT22;744;51.436;7.356;2023-04-10T16:03:20;19.30;23.20
1506;DHT22;744;51.436;7.356;2023-04-10T16:05:47;19.20;23.20
1506;DHT22;744;51.436;7.356;2023-04-10T16:08:14;19.00;23.40
1506;DHT22;744;51.436;7.356;2023-04-10T16:10:41;19.50;23.60
1506;DHT22;744;51.436;7.356;2023-04-10T16:13:08;18.90;23.20
1506;DHT22;744;51.436;7.356;2023-04-10T16:15:38;19.30;23.30
1506;DHT22;744;51.436;7.356;2023-04-10T16:18:05;19.40;23.40
1506;DHT22;744;51.436;7.356;2023-04-10T16:20:33;19.40;23.40
1506;DHT22;744;51.436;7.356;2023-04-10T16:23:00;19.50;23.30
1506;DHT22;744;51.436;7.356;2023-04-10T16:25:27;19.60;23.40
1506;DHT22;744;51.436;7.356;2023-04-10T16:27:54;19.70;24.00
1506;DHT22;744;51.436;7.356;2023-04-10T16:30:23;19.70;23.60
1506;DHT22;744;51.436;7.356;2023-04-10T16:32:50;19.80;23.60
1506;DHT22;744;51.436;7.356;2023-04-10T16:35:17;19.60;23.20
1506;DHT22;744;51.436;7.356;2023-04-10T16:37:45;19.50;22.90
1506;DHT22;744;51.436;7.356;2023-04-10T16:40:12;19.30;22.80
1506;DHT22;744;51.436;7.356;2023-04-10T16:42:39;19.40;22.40
1506;DHT22;744;51.436;7.356;2023-04-10T16:45:06;19.30;22.10
1506;DHT22;744;51.436;7.356;2023-04-10T16:47:34;19.30;22.20
1506;DHT22;744;51.436;7.356;2023-04-10T16:50:01;19.20;22.10
1506;DHT22;744;51.436;7.356;2023-04-10T16:52:28;19.10;22.10
1506;DHT22;744;51.436;7.356;2023-04-10T16:54:55;19.20;22.20
1506;DHT22;744;51.436;7.356;2023-04-10T16:57:21;19.30;22.40
1506;DHT22;744;51.436;7.356;2023-04-10T16:59:48;19.10;22.80
1506;DHT22;744;51.436;7.356;2023-04-10T17:02:15;18.70;22.10
1506;DHT22;744;51.436;7.356;2023-04-10T17:04:42;19.00;22.40
1506;DHT22;744;51.436;7.356;2023-04-10T17:07:08;18.90;22.50